Time;durP1;ratioP1;P1;durP2;ratioP2;P2;SDS_P1;SDS_P2;PMS_P1;PMS_P2;Temp;Humidity;BMP_temperature;BMP_pressure;BME280_temperature;BME280_humidity;BME280_pressure;Samples;Min_cycle;Max_cycle;Signal;HPM_P1;HPM_P2
2022/05/27 00:00:53;;;;;;;0.70;0.70;;;14.60;99.90;;;;;;5058786;28;20269;-62
2022/05/27 00:03:20;;;;;;;0.65;0.65;;;14.50;99.90;;;;;;5055185;28;20227;-63
2022/05/27 00:05:49;;;;;;;0.65;0.52;;;14.30;99.90;;;;;;5055215;28;20290;-63
2022/05/27 00:08:17;;;;;;;0.70;0.70;;;14.30;99.90;;;;;;5064279;28;20238;-62
2022/05/27 00:10:44;;;;;;;0.60;0.60;;;14.20;99.90;;;;;;5073126;28;20290;-62
2022/05/27 00:13:12;;;;;;;0.53;0.53;;;14.20;99.90;;;;;;5072909;28;20239;-63
2022/05/27 00:15:41;;;;;;;0.60;0.60;;;14.10;99.90;;;;;;5072825;28;20223;-63
2022/05/27 00:18:08;;;;;;;0.80;0.67;;;14.20;99.90;;;;;;5072746;28;20740;-63
2022/05/27 00:20:36;;;;;;;0.50;0.50;;;14.20;99.90;;;;;;5073424;28;20606;-63
2022/05/27 00:23:03;;;;;;;0.80;0.80;;;14.10;99.90;;;;;;5072300;28;20707;-62
2022/05/27 00:25:30;;;;;;;0.52;0.52;;;14.20;99.90;;;;;;5072801;28;20242;-63
2022/05/27 00:27:57;;;;;;;0.70;0.70;;;14.10;99.90;;;;;;5072359;28;20238;-63
2022/05/27 00:30:24;;;;;;;0.80;0.80;;;14.30;99.90;;;;;;5073157;28;20684;-63
2022/05/27 00:32:52;;;;;;;0.60;0.60;;;14.10;99.90;;;;;;5072120;28;20213;-64
2022/05/27 00:35:19;;;;;;;0.77;0.77;;;14.00;99.90;;;;;;5072553;28;20298;-63
2022/05/27 00:37:47;;;;;;;0.75;0.75;;;14.00;99.90;;;;;;5073289;28;20255;-62
2022/05/27 00:40:15;;;;;;;0.60;0.60;;;14.00;99.90;;;;;;5075391;28;20246;-62
2022/05/27 00:42:44;;;;;;;0.60;0.60;;;14.00;99.90;;;;;;5075750;28;20213;-62
2022/05/27 00:45:16;;;;;;;0.80;0.80;;;14.10;99.90;;;;;;5076787;28;20290;-62
2022/05/27 00:47:44;;;;;;;0.60;0.60;;;14.00;99.90;;;;;;5079537;28;20310;-62
2022/05/27 00:50:16;;;;;;;0.63;0.63;;;14.00;99.90;;;;;;5081262;28;20298;-61
2022/05/27 00:52:45;;;;;;;0.70;0.70;;;13.90;99.90;;;;;;5083787;28;20230;-61
2022/05/27 00:55:17;;;;;;;0.70;0.70;;;13.90;99.90;;;;;;5086268;28;20226;-62
2022/05/27 00:57:47;;;;;;;0.63;0.63;;;13.90;99.90;;;;;;5078682;28;20227;-63
2022/05/27 01:00:17;;;;;;;0.60;0.60;;;13.90;99.90;;;;;;5048999;28;20295;-64
2022/05/27 01:02:45;;;;;;;0.53;0.53;;;13.90;99.90;;;;;;5065575;28;20278;-63
2022/05/27 01:05:16;;;;;;;0.60;0.60;;;13.90;99.90;;;;;;5058179;28;20221;-62
2022/05/27 01:07:44;;;;;;;0.50;0.50;;;13.90;99.90;;;;;;5054097;28;20298;-62
2022/05/27 01:10:18;;;;;;;0.60;0.60;;;13.90;99.90;;;;;;5054055;28;20204;-63
2022/05/27 01:13:02;;;;;;;0.47;0.47;;;13.90;99.90;;;;;;5053107;28;20245;-62
2022/05/27 01:15:34;;;;;;;0.40;0.40;;;13.90;99.90;;;;;;5053713;28;20204;-63
2022/05/27 01:18:17;;;;;;;0.77;0.77;;;13.90;99.90;;;;;;5053329;28;20634;-63
2022/05/27 01:20:55;;;;;;;0.80;0.80;;;13.80;99.90;;;;;;5053394;28;20575;-63
2022/05/27 01:24:13;;;;;;;0.65;0.65;;;13.70;99.90;;;;;;5052594;28;20200;-63
2022/05/27 01:27:12;;;;;;;0.60;0.60;;;13.60;99.90;;;;;;4960897;28;20289;-62
2022/05/27 01:30:28;;;;;;;0.70;0.70;;;13.50;99.90;;;;;;5044948;28;20232;-63
2022/05/27 01:33:13;;;;;;;0.68;0.68;;;13.50;99.90;;;;;;5051998;28;20650;-62
2022/05/27 01:35:46;;;;;;;0.70;0.70;;;13.40;99.90;;;;;;5052977;28;20204;-64
2022/05/27 01:38:19;;;;;;;0.80;0.80;;;13.40;99.90;;;;;;5052565;28;20317;-62
2022/05/27 01:41:02;;;;;;;0.70;0.70;;;13.30;99.90;;;;;;5052381;28;20361;-63
2022/05/27 01:43:38;;;;;;;0.67;0.67;;;13.30;99.90;;;;;;5052388;28;20200;-63
2022/05/27 01:46:11;;;;;;;0.85;0.85;;;13.30;99.90;;;;;;5052420;28;20205;-61
2022/05/27 01:48:51;;;;;;;0.70;0.70;;;13.30;99.90;;;;;;5052658;28;20238;-63
2022/05/27 01:51:25;;;;;;;0.70;0.70;;;13.30;99.90;;;;;;5055545;28;20764;-63
2022/05/27 01:53:55;;;;;;;0.57;0.57;;;13.30;99.90;;;;;;5055834;28;20227;-62
2022/05/27 01:56:27;;;;;;;0.55;0.55;;;13.30;99.90;;;;;;5054415;28;20220;-62
2022/05/27 01:58:59;;;;;;;0.80;0.80;;;13.30;99.90;;;;;;5055815;28;20259;-62
2022/05/27 02:01:31;;;;;;;1.25;1.20;;;13.30;99.90;;;;;;5055949;28;20235;-62
2022/05/27 02:04:05;;;;;;;0.77;0.77;;;13.30;99.90;;;;;;5054916;28;20233;-63
2022/05/27 02:06:38;;;;;;;0.70;0.70;;;13.30;99.90;;;;;;5056243;28;20291;-63
2022/05/27 02:09:12;;;;;;;0.67;0.67;;;13.10;99.90;;;;;;5055959;28;20314;-61
2022/05/27 02:11:42;;;;;;;0.50;0.50;;;13.10;99.90;;;;;;5057674;28;20235;-62
2022/05/27 02:14:15;;;;;;;0.80;0.80;;;13.10;99.90;;;;;;5057399;28;20211;-62
2022/05/27 02:16:49;;;;;;;0.80;0.80;;;13.20;99.90;;;;;;5056502;28;20310;-65
2022/05/27 02:19:22;;;;;;;0.68;0.68;;;13.20;99.90;;;;;;5057742;28;20281;-62
2022/05/27 02:21:54;;;;;;;0.77;0.77;;;13.20;99.90;;;;;;5056561;28;20666;-63
2022/05/27 02:24:27;;;;;;;0.60;0.60;;;13.20;99.90;;;;;;5056007;28;20238;-63
2022/05/27 02:26:57;;;;;;;0.70;0.70;;;13.20;99.90;;;;;;5055377;28;20208;-63
2022/05/27 02:29:29;;;;;;;0.70;0.70;;;13.10;99.90;;;;;;5055513;28;20303;-62
2022/05/27 02:32:01;;;;;;;0.70;0.70;;;13.00;99.90;;;;;;5055764;28;20204;-63
2022/05/27 02:37:24;;;;;;;0.60;0.60;;;13.00;99.90;;;;;;5055244;28;20234;-62
2022/05/27 02:39:51;;;;;;;0.50;0.50;;;12.90;99.90;;;;;;5055785;28;20215;-63
2022/05/27 02:42:29;;;;;;;0.70;0.70;;;12.90;99.90;;;;;;5057745;28;20271;-62
2022/05/27 02:45:05;;;;;;;0.68;0.68;;;12.90;99.90;;;;;;5067634;28;20239;-62
2022/05/27 02:47:39;;;;;;;0.80;0.80;;;12.90;99.90;;;;;;5060025;28;20306;-62
2022/05/27 02:50:13;;;;;;;0.70;0.70;;;12.90;99.90;;;;;;5057084;28;20302;-62
2022/05/27 02:53:01;;;;;;;0.63;0.63;;;12.80;99.90;;;;;;5054485;28;20249;-62
2022/05/27 02:55:34;;;;;;;0.60;0.60;;;12.70;99.90;;;;;;5053394;28;20243;-62
2022/05/27 02:58:02;;;;;;;0.83;0.83;;;12.70;99.90;;;;;;5054714;28;20315;-62
2022/05/27 03:00:32;;;;;;;0.67;0.67;;;12.70;99.90;;;;;;5054001;28;20290;-62
2022/05/27 03:02:59;;;;;;;0.80;0.80;;;12.70;99.90;;;;;;5055376;28;20295;-62
2022/05/27 03:05:36;;;;;;;0.80;0.80;;;12.70;99.90;;;;;;5057136;28;20277;-62
2022/05/27 03:08:12;;;;;;;0.70;0.70;;;12.80;99.90;;;;;;5057371;28;20247;-62
2022/05/27 03:10:52;;;;;;;0.87;0.87;;;12.70;99.90;;;;;;5055324;28;20291;-62
2022/05/27 03:13:28;;;;;;;0.90;0.90;;;12.60;99.90;;;;;;5054558;28;20203;-63
2022/05/27 03:16:07;;;;;;;0.70;0.70;;;12.70;99.90;;;;;;5054847;28;20290;-63
2022/05/27 03:18:48;;;;;;;0.73;0.73;;;12.70;99.90;;;;;;5053875;28;20322;-63
2022/05/27 03:21:23;;;;;;;0.73;0.73;;;12.80;99.90;;;;;;5054069;28;20210;-62
2022/05/27 03:24:16;;;;;;;0.80;0.80;;;12.90;99.90;;;;;;5053343;28;20583;-63
2022/05/27 03:26:57;;;;;;;0.70;0.70;;;13.00;99.90;;;;;;5053617;28;20199;-63
2022/05/27 03:29:32;;;;;;;0.70;0.70;;;13.10;99.90;;;;;;5053616;28;20310;-63
2022/05/27 03:32:05;;;;;;;0.80;0.80;;;13.10;99.90;;;;;;5053500;28;20291;-61
2022/05/27 03:34:37;;;;;;;0.60;0.60;;;13.20;99.90;;;;;;5054171;28;20239;-62
2022/05/27 03:37:12;;;;;;;0.80;0.80;;;13.20;99.90;;;;;;5053982;28;20651;-62
2022/05/27 03:39:48;;;;;;;0.80;0.80;;;13.30;99.90;;;;;;5054850;28;20314;-64
2022/05/27 03:42:18;;;;;;;0.90;0.90;;;13.40;99.90;;;;;;5055107;28;20211;-62
2022/05/27 03:44:51;;;;;;;1.47;0.80;;;13.40;99.90;;;;;;5055287;28;20315;-62
2022/05/27 03:47:18;;;;;;;0.77;0.77;;;13.30;99.90;;;;;;5053420;28;20612;-62
2022/05/27 03:49:45;;;;;;;0.80;0.80;;;13.30;99.90;;;;;;5055178;28;20207;-62
2022/05/27 03:52:19;;;;;;;0.70;0.70;;;13.40;99.90;;;;;;5056461;28;20235;-62
2022/05/27 03:54:46;;;;;;;0.90;0.90;;;13.40;99.90;;;;;;5051075;28;20207;-64
2022/05/27 03:57:13;;;;;;;1.00;1.00;;;13.30;99.90;;;;;;5053994;28;20227;-62
2022/05/27 03:59:40;;;;;;;0.80;0.80;;;13.40;99.90;;;;;;5053821;28;20788;-63
2022/05/27 04:02:07;;;;;;;0.83;0.83;;;13.40;99.90;;;;;;5052806;28;20696;-62
2022/05/27 04:04:34;;;;;;;0.90;0.90;;;13.40;99.90;;;;;;5053246;28;20720;-64
2022/05/27 04:07:01;;;;;;;0.60;0.60;;;13.40;99.90;;;;;;5053033;28;20633;-63
2022/05/27 04:09:29;;;;;;;0.70;0.70;;;13.50;99.90;;;;;;5053129;28;20315;-63
2022/05/27 04:11:57;;;;;;;0.60;0.60;;;13.60;99.90;;;;;;5052474;28;20294;-63
2022/05/27 04:14:24;;;;;;;0.80;0.80;;;13.60;99.90;;;;;;5052724;28;20236;-63
2022/05/27 04:16:51;;;;;;;0.80;0.80;;;13.60;99.90;;;;;;5053013;28;20316;-63
2022/05/27 04:19:18;;;;;;;0.80;0.80;;;13.70;99.90;;;;;;5053801;28;20236;-63
2022/05/27 04:21:46;;;;;;;0.75;0.75;;;13.80;99.90;;;;;;5053197;28;20211;-63
2022/05/27 04:24:13;;;;;;;0.90;0.90;;;13.80;99.90;;;;;;5052390;28;20302;-63
2022/05/27 04:26:41;;;;;;;0.63;0.63;;;13.90;99.90;;;;;;5052527;28;20243;-61
2022/05/27 04:29:08;;;;;;;0.70;0.70;;;14.00;99.90;;;;;;5052793;28;20307;-63
2022/05/27 04:31:35;;;;;;;0.70;0.70;;;14.00;99.90;;;;;;5053029;28;20214;-63
2022/05/27 04:34:06;;;;;;;0.70;0.70;;;14.10;99.90;;;;;;5052645;28;20243;-62
2022/05/27 04:36:33;;;;;;;0.80;0.80;;;14.10;99.90;;;;;;5051707;28;20283;-61
2022/05/27 04:39:00;;;;;;;0.87;0.87;;;14.10;99.90;;;;;;5052659;28;20270;-61
2022/05/27 04:41:27;;;;;;;0.90;0.90;;;14.10;99.90;;;;;;5054402;28;20290;-64
2022/05/27 04:43:55;;;;;;;0.87;0.87;;;14.20;99.90;;;;;;5053071;28;20304;-64
2022/05/27 04:46:22;;;;;;;0.80;0.80;;;14.10;99.90;;;;;;5053349;28;20291;-61
2022/05/27 04:48:49;;;;;;;0.90;0.90;;;14.10;99.90;;;;;;5052950;28;20277;-62
2022/05/27 04:51:16;;;;;;;1.00;1.00;;;14.20;99.90;;;;;;5052758;28;20208;-64
2022/05/27 04:53:44;;;;;;;0.80;0.80;;;14.20;99.90;;;;;;5062715;28;20210;-64
2022/05/27 04:56:11;;;;;;;0.90;0.90;;;14.20;99.90;;;;;;5065297;28;20215;-63
2022/05/27 04:58:38;;;;;;;1.00;0.90;;;14.20;99.90;;;;;;5062311;28;20601;-63
2022/05/27 05:01:06;;;;;;;0.77;0.77;;;14.20;99.90;;;;;;5056429;28;20228;-63
2022/05/27 05:03:33;;;;;;;0.80;0.80;;;14.30;99.90;;;;;;5058289;28;20246;-63
2022/05/27 05:06:00;;;;;;;0.90;0.90;;;14.30;99.90;;;;;;5056381;28;20681;-63
2022/05/27 05:08:33;;;;;;;0.77;0.77;;;14.40;99.90;;;;;;5059265;28;20251;-63
2022/05/27 05:11:01;;;;;;;0.87;0.87;;;14.40;99.90;;;;;;5058159;28;20203;-63
2022/05/27 05:13:28;;;;;;;0.90;0.90;;;14.50;99.90;;;;;;5058807;28;20252;-63
2022/05/27 05:15:55;;;;;;;0.88;0.88;;;14.50;99.90;;;;;;5058220;28;20204;-64
2022/05/27 05:18:24;;;;;;;0.80;0.80;;;14.50;99.90;;;;;;5058733;28;20318;-62
2022/05/27 05:20:51;;;;;;;0.90;0.90;;;14.60;99.90;;;;;;5057354;28;20227;-64
2022/05/27 05:23:18;;;;;;;0.73;0.73;;;14.70;99.90;;;;;;5057039;28;20322;-62
2022/05/27 05:25:44;;;;;;;0.80;0.80;;;14.70;99.90;;;;;;5059955;28;20211;-62
2022/05/27 05:28:11;;;;;;;0.73;0.73;;;14.80;99.90;;;;;;5056628;28;20247;-63
2022/05/27 05:30:38;;;;;;;0.80;0.80;;;14.90;99.90;;;;;;5057331;28;20207;-62
2022/05/27 05:33:05;;;;;;;0.90;0.90;;;14.90;99.90;;;;;;5055001;28;20387;-63
2022/05/27 05:35:34;;;;;;;1.47;0.80;;;14.90;99.90;;;;;;5055279;28;20196;-63
2022/05/27 05:38:01;;;;;;;0.80;0.80;;;14.90;99.90;;;;;;5049691;28;20235;-62
2022/05/27 05:40:28;;;;;;;0.77;0.77;;;15.00;99.90;;;;;;5053121;28;20203;-64
2022/05/27 05:42:55;;;;;;;0.90;0.90;;;15.00;99.90;;;;;;5039582;28;20267;-61
2022/05/27 05:45:21;;;;;;;1.00;1.00;;;15.00;99.90;;;;;;5042769;28;20231;-62
2022/05/27 05:47:48;;;;;;;0.87;0.87;;;15.00;99.90;;;;;;5044822;28;20226;-62
2022/05/27 05:50:17;;;;;;;0.80;0.80;;;15.10;99.90;;;;;;5047909;28;20204;-62
2022/05/27 05:52:45;;;;;;;0.80;0.80;;;15.10;99.90;;;;;;5043699;28;20200;-62
2022/05/27 05:55:14;;;;;;;0.60;0.60;;;15.20;99.90;;;;;;5037660;28;20667;-62
2022/05/27 05:57:43;;;;;;;0.90;0.90;;;15.20;99.90;;;;;;5035920;28;20274;-62
2022/05/27 06:00:13;;;;;;;0.80;0.80;;;15.30;99.90;;;;;;5039153;28;20395;-62
2022/05/27 06:02:41;;;;;;;1.10;1.10;;;15.30;99.90;;;;;;5035860;28;20231;-62
2022/05/27 06:05:08;;;;;;;1.00;1.00;;;15.30;99.90;;;;;;5038800;28;20291;-61
2022/05/27 06:07:35;;;;;;;0.85;0.85;;;15.30;99.90;;;;;;5035494;28;20228;-61
2022/05/27 06:10:05;;;;;;;0.90;0.90;;;15.40;99.90;;;;;;5037149;28;20239;-62
2022/05/27 06:12:34;;;;;;;0.90;0.90;;;15.50;99.90;;;;;;5035628;28;20209;-61
2022/05/27 06:15:01;;;;;;;0.80;0.80;;;15.50;99.90;;;;;;5036662;28;20710;-61
2022/05/27 06:17:29;;;;;;;0.80;0.80;;;15.60;99.90;;;;;;5043523;28;20216;-62
2022/05/27 06:19:56;;;;;;;0.90;0.90;;;15.60;99.90;;;;;;5035506;28;20303;-62
2022/05/27 06:22:23;;;;;;;0.80;0.80;;;15.60;99.90;;;;;;5041345;28;20195;-62
2022/05/27 06:24:50;;;;;;;1.17;1.07;;;15.70;99.90;;;;;;5036071;28;20201;-62
2022/05/27 06:27:19;;;;;;;0.97;0.97;;;15.70;99.90;;;;;;5035992;28;20231;-63
2022/05/27 06:35:14;;;;;;;0.80;0.80;;;15.90;99.90;;;;;;5051685;28;20203;-61
2022/05/27 06:37:41;;;;;;;1.00;1.00;;;16.00;99.90;;;;;;5052105;28;20228;-62
2022/05/27 06:40:09;;;;;;;0.90;0.90;;;16.10;99.90;;;;;;5046867;28;20215;-62
2022/05/27 06:42:38;;;;;;;0.90;0.90;;;16.10;99.90;;;;;;5045545;28;20264;-62
2022/05/27 06:45:06;;;;;;;0.65;0.65;;;16.20;99.90;;;;;;5043757;28;20204;-61
2022/05/27 06:47:32;;;;;;;0.80;0.80;;;16.30;99.90;;;;;;5045973;28;20211;-62
2022/05/27 06:49:59;;;;;;;0.90;0.90;;;16.40;99.90;;;;;;5045850;28;20236;-62
2022/05/27 06:52:27;;;;;;;0.97;0.97;;;16.50;99.90;;;;;;5044946;28;20231;-62
2022/05/27 06:54:54;;;;;;;0.83;0.83;;;16.60;99.90;;;;;;5042452;28;20231;-62
2022/05/27 06:57:21;;;;;;;0.70;0.70;;;16.70;99.90;;;;;;5047025;28;20304;-62
2022/05/27 06:59:49;;;;;;;0.80;0.80;;;16.80;99.90;;;;;;5045045;28;20211;-62
2022/05/27 07:02:16;;;;;;;0.87;0.87;;;16.80;99.90;;;;;;5043976;28;20208;-62
2022/05/27 07:04:43;;;;;;;1.00;1.00;;;16.80;99.90;;;;;;5050007;28;20290;-62
2022/05/27 07:07:11;;;;;;;0.90;0.90;;;16.80;99.90;;;;;;5051379;28;20200;-62
2022/05/27 07:09:37;;;;;;;0.77;0.77;;;16.90;99.90;;;;;;5055206;28;20224;-62
2022/05/27 07:12:08;;;;;;;0.70;0.70;;;17.00;99.90;;;;;;5051380;28;20573;-62
2022/05/27 07:14:36;;;;;;;0.77;0.77;;;17.10;99.90;;;;;;5053480;28;20239;-62
2022/05/27 07:17:05;;;;;;;0.60;0.60;;;17.10;99.90;;;;;;5061879;28;20603;-62
2022/05/27 07:19:32;;;;;;;0.70;0.70;;;17.10;99.90;;;;;;5058710;28;20227;-62
2022/05/27 07:21:59;;;;;;;0.80;0.80;;;17.20;99.90;;;;;;5055010;28;20290;-61
2022/05/27 07:24:26;;;;;;;0.90;0.90;;;17.20;99.90;;;;;;5054991;28;20302;-61
2022/05/27 07:26:53;;;;;;;0.93;0.93;;;17.30;99.90;;;;;;5049410;28;20291;-61
2022/05/27 07:29:20;;;;;;;1.07;1.00;;;17.30;99.90;;;;;;5054961;28;20211;-61
2022/05/27 07:31:47;;;;;;;1.03;1.03;;;17.30;99.90;;;;;;5054465;28;20208;-62
2022/05/27 07:34:15;;;;;;;0.80;0.80;;;17.30;99.90;;;;;;5063533;28;20204;-62
2022/05/27 07:36:42;;;;;;;0.93;0.93;;;17.30;99.90;;;;;;5064726;28;20247;-62
2022/05/27 07:39:09;;;;;;;0.75;0.75;;;17.30;99.90;;;;;;5071507;28;20609;-61
2022/05/27 07:41:37;;;;;;;0.80;0.80;;;17.40;99.90;;;;;;5073302;28;20214;-62
2022/05/27 07:44:05;;;;;;;0.90;0.90;;;17.30;99.90;;;;;;5072867;28;20238;-62
2022/05/27 07:46:34;;;;;;;0.93;0.93;;;17.30;99.90;;;;;;5073254;28;20839;-62
2022/05/27 07:49:01;;;;;;;0.77;0.77;;;17.40;99.90;;;;;;5073610;28;20255;-62
2022/05/27 07:51:29;;;;;;;1.00;1.00;;;17.40;99.90;;;;;;5073258;28;20320;-62
2022/05/27 07:53:56;;;;;;;0.73;0.73;;;17.50;99.90;;;;;;5073157;28;20294;-62
2022/05/27 07:56:23;;;;;;;1.07;1.07;;;17.40;99.90;;;;;;5070258;28;20203;-62
2022/05/27 07:58:50;;;;;;;0.80;0.80;;;17.50;99.90;;;;;;5063196;28;20318;-62
2022/05/27 08:01:17;;;;;;;1.23;1.23;;;17.50;99.90;;;;;;5052995;28;20258;-62
2022/05/27 08:03:44;;;;;;;1.00;1.00;;;17.60;99.90;;;;;;5038023;28;20211;-62
2022/05/27 08:06:11;;;;;;;1.00;1.00;;;17.50;99.90;;;;;;5045365;28;20296;-61
2022/05/27 08:08:40;;;;;;;0.83;0.83;;;17.40;99.90;;;;;;5036238;28;20286;-63
2022/05/27 08:11:07;;;;;;;0.80;0.80;;;17.40;99.90;;;;;;5045109;28;20648;-63
2022/05/27 08:13:35;;;;;;;0.90;0.90;;;17.30;99.90;;;;;;5042162;28;20212;-62
2022/05/27 08:16:01;;;;;;;0.83;0.83;;;17.40;99.90;;;;;;5041683;28;20196;-63
2022/05/27 08:18:28;;;;;;;0.80;0.80;;;17.50;99.90;;;;;;5034455;28;20311;-63
2022/05/27 08:20:55;;;;;;;0.52;0.52;;;17.60;99.90;;;;;;5036702;28;20205;-62
2022/05/27 08:23:24;;;;;;;0.80;0.80;;;17.70;99.90;;;;;;5047636;28;20212;-62
2022/05/27 08:25:55;;;;;;;0.75;0.75;;;17.80;99.90;;;;;;5035275;28;20591;-62
2022/05/27 08:28:24;;;;;;;1.00;1.00;;;17.90;99.90;;;;;;5041274;28;20285;-62
2022/05/27 08:30:55;;;;;;;0.90;0.90;;;17.90;99.90;;;;;;5053098;28;20210;-62
2022/05/27 08:33:23;;;;;;;0.77;0.77;;;17.90;99.90;;;;;;5047816;28;20216;-62
2022/05/27 08:38:36;;;;;;;0.60;0.60;;;18.10;99.90;;;;;;5036662;28;20387;-62
2022/05/27 08:41:18;;;;;;;0.70;0.70;;;18.10;99.90;;;;;;5041517;28;20205;-62
2022/05/27 08:43:57;;;;;;;0.68;0.68;;;18.10;99.90;;;;;;5038316;28;20251;-61
2022/05/27 08:46:33;;;;;;;2.05;0.90;;;18.20;99.90;;;;;;5046237;28;20210;-61
2022/05/27 08:49:04;;;;;;;0.80;0.80;;;18.30;99.90;;;;;;5049408;28;20220;-62
2022/05/27 08:51:39;;;;;;;0.60;0.60;;;18.40;99.90;;;;;;5046048;28;20561;-62
2022/05/27 08:54:10;;;;;;;0.52;0.52;;;18.40;99.90;;;;;;5047470;28;20322;-62
2022/05/27 08:59:35;;;;;;;0.85;0.52;;;18.40;99.90;;;;;;5072624;28;20249;-62
2022/05/27 09:02:14;;;;;;;0.50;0.50;;;18.50;99.90;;;;;;5065902;28;20204;-62
2022/05/27 09:04:51;;;;;;;0.73;0.73;;;18.60;99.90;;;;;;5052952;28;20298;-62
2022/05/27 09:07:37;;;;;;;0.88;0.88;;;18.70;99.90;;;;;;5050262;28;20208;-62
2022/05/27 09:10:09;;;;;;;0.70;0.70;;;18.60;99.90;;;;;;5051345;28;20632;-62
2022/05/27 09:12:48;;;;;;;0.77;0.70;;;18.70;99.90;;;;;;5050869;28;20295;-62
2022/05/27 09:15:41;;;;;;;0.60;0.60;;;18.80;99.90;;;;;;5050228;28;20282;-62
2022/05/27 09:18:15;;;;;;;0.60;0.60;;;19.00;99.90;;;;;;5050004;28;20748;-63
2022/05/27 09:21:02;;;;;;;0.60;0.60;;;19.20;99.90;;;;;;5050234;28;20212;-62
2022/05/27 09:24:01;;;;;;;0.50;0.50;;;19.30;99.90;;;;;;5048827;28;21510;-62
2022/05/27 09:26:34;;;;;;;0.67;0.67;;;19.40;99.90;;;;;;5052347;28;20208;-61
2022/05/27 09:29:16;;;;;;;0.63;0.63;;;19.40;99.90;;;;;;5052910;28;20602;-61
2022/05/27 09:31:47;;;;;;;0.70;0.70;;;19.50;99.90;;;;;;5047018;28;20200;-63
2022/05/27 09:34:15;;;;;;;0.60;0.60;;;19.40;99.90;;;;;;5050376;28;20196;-62
2022/05/27 09:36:45;;;;;;;0.67;0.67;;;19.50;99.90;;;;;;5051147;28;20207;-62
2022/05/27 09:39:15;;;;;;;0.53;0.53;;;19.60;99.90;;;;;;5052748;28;20314;-62
2022/05/27 09:41:51;;;;;;;0.80;0.80;;;20.00;99.90;;;;;;5051738;28;20206;-62
2022/05/27 09:44:25;;;;;;;0.68;0.68;;;20.10;99.90;;;;;;5050935;28;20206;-63
2022/05/27 09:46:52;;;;;;;0.60;0.60;;;19.90;99.90;;;;;;5051223;28;20228;-63
2022/05/27 09:49:21;;;;;;;0.70;0.70;;;19.90;99.90;;;;;;5051540;28;20219;-62
2022/05/27 09:51:48;;;;;;;0.50;0.50;;;20.00;99.90;;;;;;5051868;28;20689;-61
2022/05/27 09:54:27;;;;;;;0.60;0.60;;;20.20;99.90;;;;;;5051351;28;20204;-63
2022/05/27 09:57:01;;;;;;;0.60;0.60;;;20.30;99.90;;;;;;5051401;28;20214;-62
2022/05/27 09:59:37;;;;;;;0.70;0.70;;;20.50;99.90;;;;;;5051448;28;20259;-63
2022/05/27 10:02:20;;;;;;;1.75;0.47;;;20.40;99.90;;;;;;5053997;28;20294;-61
2022/05/27 10:04:56;;;;;;;0.45;0.45;;;20.30;99.90;;;;;;5053559;28;20219;-63
2022/05/27 10:07:36;;;;;;;0.55;0.55;;;20.30;99.90;;;;;;5072978;22;20244;-61
2022/05/27 10:10:26;;;;;;;0.50;0.50;;;20.30;99.90;;;;;;5081031;28;20285;-61
2022/05/27 10:12:53;;;;;;;0.50;0.50;;;20.30;99.90;;;;;;5095049;28;20241;-61
2022/05/27 10:15:31;;;;;;;0.70;0.70;;;20.40;99.90;;;;;;5096040;28;20217;-61
2022/05/27 10:18:14;;;;;;;0.60;0.60;;;20.60;99.90;;;;;;5095081;28;20219;-61
2022/05/27 10:20:42;;;;;;;0.70;0.68;;;20.80;99.90;;;;;;5095725;28;20293;-62
2022/05/27 10:23:11;;;;;;;1.05;0.70;;;20.80;99.90;;;;;;5095168;28;20257;-60
2022/05/27 10:25:40;;;;;;;0.60;0.60;;;20.90;99.90;;;;;;5095613;28;20206;-62
2022/05/27 10:28:09;;;;;;;1.08;0.60;;;21.00;99.90;;;;;;5085114;28;20313;-63
2022/05/27 10:30:41;;;;;;;0.50;0.50;;;21.20;99.90;;;;;;5075050;28;20241;-62
2022/05/27 10:33:18;;;;;;;0.60;0.60;;;21.10;99.90;;;;;;5075133;28;20243;-62
2022/05/27 10:35:46;;;;;;;0.60;0.60;;;21.30;99.90;;;;;;5075445;28;20203;-63
2022/05/27 10:38:39;;;;;;;0.57;0.57;;;21.30;99.90;;;;;;5077902;28;20215;-62
2022/05/27 10:41:14;;;;;;;0.40;0.40;;;21.60;99.90;;;;;;5072796;28;20200;-62
2022/05/27 10:44:06;;;;;;;0.55;0.55;;;22.10;99.90;;;;;;5070783;28;20203;-63
2022/05/27 10:46:47;;;;;;;0.47;0.47;;;22.30;99.90;;;;;;5076220;28;20305;-61
2022/05/27 10:49:30;;;;;;;0.63;0.63;;;22.10;99.90;;;;;;5076965;28;20624;-61
2022/05/27 10:52:08;;;;;;;0.77;0.75;;;21.90;99.90;;;;;;5082374;28;20643;-60
2022/05/27 10:54:48;;;;;;;0.90;0.90;;;21.90;99.90;;;;;;5084423;28;20286;-60
2022/05/27 11:03:37;;;;;;;0.82;0.70;;;22.10;99.90;;;;;;5074600;28;20199;-61
2022/05/27 11:06:26;;;;;;;0.45;0.45;;;21.70;99.90;;;;;;5040532;28;20298;-62
2022/05/27 11:09:14;;;;;;;0.70;0.70;;;21.40;99.90;;;;;;5074168;28;20709;-61
2022/05/27 11:11:48;;;;;;;3.60;0.82;;;21.30;99.90;;;;;;5074031;28;20287;-61
2022/05/27 11:17:22;;;;;;;0.60;0.60;;;21.30;99.90;;;;;;5074156;28;20222;-61
2022/05/27 11:20:08;;;;;;;0.80;0.80;;;21.30;99.90;;;;;;5073838;28;20233;-60
2022/05/27 11:22:38;;;;;;;1.17;0.70;;;21.20;99.90;;;;;;5081604;28;20195;-61
2022/05/27 11:25:30;;;;;;;1.00;1.00;;;21.30;99.90;;;;;;5074330;28;20294;-62
2022/05/27 11:28:19;;;;;;;0.80;0.80;;;21.40;99.90;;;;;;5074842;28;20222;-61
2022/05/27 11:30:58;;;;;;;1.13;0.70;;;21.30;99.90;;;;;;5075769;28;20196;-61
2022/05/27 11:33:39;;;;;;;0.73;0.65;;;21.30;99.90;;;;;;5074427;28;20286;-63
2022/05/27 11:36:39;;;;;;;0.63;0.63;;;21.20;99.90;;;;;;5075376;28;20203;-61
2022/05/27 11:39:32;;;;;;;0.70;0.70;;;21.10;99.90;;;;;;5058072;28;20227;-62
2022/05/27 11:42:13;;;;;;;0.50;0.50;;;20.80;99.90;;;;;;5074027;28;20779;-63
2022/05/27 11:44:44;;;;;;;1.25;0.63;;;20.70;99.90;;;;;;5073528;28;20187;-63
2022/05/27 11:47:34;;;;;;;0.77;0.77;;;20.70;99.90;;;;;;5073458;28;20238;-61
2022/05/27 11:50:13;;;;;;;0.60;0.60;;;20.80;99.90;;;;;;5073273;28;20204;-62
2022/05/27 11:53:02;;;;;;;0.70;0.70;;;20.80;99.90;;;;;;5073072;28;20198;-61
2022/05/27 11:55:48;;;;;;;0.60;0.60;;;20.80;99.90;;;;;;5074000;28;20601;-61
2022/05/27 11:58:20;;;;;;;0.57;0.57;;;20.80;99.90;;;;;;5075466;28;20223;-60
2022/05/27 12:00:51;;;;;;;0.88;0.60;;;20.80;99.90;;;;;;5076529;28;20211;-63
2022/05/27 12:03:26;;;;;;;0.60;0.60;;;20.70;99.90;;;;;;5072523;28;20192;-62
2022/05/27 12:05:57;;;;;;;0.50;0.50;;;20.90;99.90;;;;;;5072864;28;20282;-62
2022/05/27 12:08:32;;;;;;;0.73;0.60;;;20.90;99.90;;;;;;5072035;28;20234;-62
2022/05/27 12:11:07;;;;;;;0.50;0.50;;;21.00;99.90;;;;;;5071570;28;20274;-60
2022/05/27 12:13:41;;;;;;;0.60;0.60;;;21.10;99.90;;;;;;5072734;28;20202;-61
2022/05/27 12:16:13;;;;;;;0.50;0.50;;;21.10;99.90;;;;;;5073172;28;20231;-61
2022/05/27 12:18:44;;;;;;;0.60;0.60;;;21.20;99.90;;;;;;5072889;28;20286;-62
2022/05/27 12:21:15;;;;;;;0.50;0.50;;;21.30;99.90;;;;;;5072935;28;20270;-61
2022/05/27 12:23:48;;;;;;;0.70;0.70;;;21.20;99.90;;;;;;5072519;28;20219;-62
2022/05/27 12:26:17;;;;;;;0.80;0.80;;;21.20;99.90;;;;;;5072741;28;20710;-62
2022/05/27 12:28:45;;;;;;;0.63;0.63;;;21.40;99.90;;;;;;5072310;28;20203;-62
2022/05/27 12:31:15;;;;;;;0.63;0.63;;;21.40;99.90;;;;;;5074233;28;20203;-63
2022/05/27 12:33:42;;;;;;;0.50;0.50;;;21.30;99.90;;;;;;5071068;28;20204;-63
2022/05/27 12:36:18;;;;;;;0.60;0.60;;;21.40;99.90;;;;;;5072507;28;20202;-62
2022/05/27 12:38:48;;;;;;;0.70;0.70;;;21.30;99.90;;;;;;5072441;28;20301;-62
2022/05/27 12:41:18;;;;;;;1.02;0.90;;;21.40;99.90;;;;;;5072043;28;20206;-63
2022/05/27 12:44:00;;;;;;;0.50;0.50;;;21.60;99.90;;;;;;5071973;28;20214;-62
2022/05/27 12:46:32;;;;;;;0.50;0.50;;;21.70;99.90;;;;;;5072817;28;20227;-62
2022/05/27 12:49:33;;;;;;;0.60;0.60;;;21.70;99.90;;;;;;5072239;28;20235;-63
2022/05/27 12:52:01;;;;;;;0.65;0.65;;;21.70;99.90;;;;;;5067343;28;20203;-61
2022/05/27 12:55:02;;;;;;;0.60;0.60;;;21.60;99.90;;;;;;5072915;28;20207;-63
2022/05/27 13:00:57;;;;;;;0.47;0.47;;;21.30;99.90;;;;;;5071579;28;20711;-62
2022/05/27 13:03:48;;;;;;;0.60;0.60;;;21.40;99.90;;;;;;5070882;28;20213;-62
2022/05/27 13:06:36;;;;;;;0.60;0.60;;;21.40;99.90;;;;;;5080153;28;20207;-61
2022/05/27 13:09:06;;;;;;;0.55;0.55;;;21.50;99.90;;;;;;5071609;28;20608;-61
2022/05/27 13:11:46;;;;;;;0.50;0.50;;;21.50;99.90;;;;;;5072072;28;20221;-61
2022/05/27 13:14:19;;;;;;;0.60;0.60;;;21.30;99.90;;;;;;5081323;28;20202;-62
2022/05/27 13:16:50;;;;;;;0.47;0.47;;;21.40;99.90;;;;;;5092495;28;20313;-62
2022/05/27 13:19:30;;;;;;;0.50;0.50;;;21.40;99.90;;;;;;5102376;28;20259;-61
2022/05/27 13:22:00;;;;;;;0.30;0.30;;;21.40;99.90;;;;;;5092418;28;20201;-61
2022/05/27 13:24:34;;;;;;;0.40;0.40;;;21.40;99.90;;;;;;5092643;28;20202;-61
2022/05/27 13:27:14;;;;;;;0.50;0.50;;;21.40;99.90;;;;;;5092571;28;20226;-61
2022/05/27 13:29:45;;;;;;;0.50;0.50;;;21.40;99.90;;;;;;5091744;28;20293;-61
2022/05/27 13:32:17;;;;;;;0.50;0.50;;;21.40;99.90;;;;;;5087203;28;20230;-61
2022/05/27 13:34:51;;;;;;;0.50;0.50;;;21.40;99.90;;;;;;5096098;28;20201;-61
2022/05/27 13:37:28;;;;;;;0.60;0.57;;;21.50;99.90;;;;;;5096318;28;20225;-61
2022/05/27 13:40:02;;;;;;;0.50;0.50;;;21.40;99.90;;;;;;5093160;28;20226;-62
2022/05/27 13:42:33;;;;;;;0.50;0.50;;;21.20;99.90;;;;;;5092426;28;20584;-62